world map with RJSI marked

RJSI - Airport

This information may not be accurate or current and is not valid for navigation or flight planning. No warranty of fitness for any purpose is made or implied.

flag of Iwateflag of Japan

Donate via PayPal

Additional information is available on the NEW Great Circle Mapper

Location
City:  Morioka, Iwate, Japan
Name:Hanamaki Airport
ICAO / IATA:RJSI / HNA

Details
Type:Airport (Aerodrome, Airfield)
Use:Public/Civil
Latitude:39°25'43"N (39.428611)
Longitude:141°08'07"E (141.135278)
Datum:WGS 1984
Elevation:297 ft (91 m)
Runways:1
Longest:8202 × 148 ft (2500 × 45 m)

Time
Timezone:UTC+9 (DST+11)
Local Time:

Weather
METAR:RJSI  041000Z 29009KT 260V330 1200 R20/2000N -SHSN FEW003 SCT015 BKN025 M01/M03 Q1015
TAF:RJSI  (expired)

Related Locations
Nearby:
Farthest:SUEX: 12019 mi / 19343 km
Montevideo East [Montevideo East UIR], UY

Find:

   beyond  
but within

Other Information
Maps:
Sources:

  


 


Great Circle Mapper   Great Circle Mapper
Great Circle Mapper FAQ   Great Circle Mapper FAQ
  Karl's Home Page
KLSē   KLSē Home
   GC on Facebook
Airlines of the World   Airlines of the World
Donate via PayPal


Copyright © 2004-2019, Karl L. Swartz. All rights reserved.
All trademarks mentioned herein belong to their respective owners.

Please see credits for attribution and copyright information.

Karl Swartz <karl@kls2.com>
  Powered by FreeBSD
Valid HTML 4.01!
Labeled with ICRA
hCard Microformat
Geo Microformat